sensor_id;sensor_type;location;lat;lon;timestamp;temperature;humidity
41668;DHT22;27356;50.920;5.350;2023-05-10T00:01:25;14.40;99.90
41668;DHT22;27356;50.920;5.350;2023-05-10T00:03:51;14.40;99.90
41668;DHT22;27356;50.920;5.350;2023-05-10T00:06:17;14.30;99.90
41668;DHT22;27356;50.920;5.350;2023-05-10T00:08:42;14.30;99.90
41668;DHT22;27356;50.920;5.350;2023-05-10T00:11:08;14.20;99.90
41668;DHT22;27356;50.920;5.350;2023-05-10T00:13:34;14.20;99.90
41668;DHT22;27356;50.920;5.350;2023-05-10T00:15:59;14.30;99.90
41668;DHT22;27356;50.920;5.350;2023-05-10T00:18:25;14.30;99.90
41668;DHT22;27356;50.920;5.350;2023-05-10T00:20:51;14.40;99.90
41668;DHT22;27356;50.920;5.350;2023-05-10T00:23:16;14.40;99.90
41668;DHT22;27356;50.920;5.350;2023-05-10T00:25:42;14.30;99.90
41668;DHT22;27356;50.920;5.350;2023-05-10T00:28:08;14.30;99.90
41668;DHT22;27356;50.920;5.350;2023-05-10T00:30:33;14.20;99.90
41668;DHT22;27356;50.920;5.350;2023-05-10T00:32:59;14.30;99.90
41668;DHT22;27356;50.920;5.350;2023-05-10T00:35:25;14.30;99.90
41668;DHT22;27356;50.920;5.350;2023-05-10T00:37:51;14.20;99.90
41668;DHT22;27356;50.920;5.350;2023-05-10T00:40:17;14.20;99.90
41668;DHT22;27356;50.920;5.350;2023-05-10T00:42:42;14.20;99.90
41668;DHT22;27356;50.920;5.350;2023-05-10T00:45:08;14.20;99.90
41668;DHT22;27356;50.920;5.350;2023-05-10T00:47:34;14.30;99.90
41668;DHT22;27356;50.920;5.350;2023-05-10T00:50:00;14.30;99.90
41668;DHT22;27356;50.920;5.350;2023-05-10T00:52:27;14.30;99.90
41668;DHT22;27356;50.920;5.350;2023-05-10T00:54:53;14.20;99.90
41668;DHT22;27356;50.920;5.350;2023-05-10T00:57:19;14.20;99.90
41668;DHT22;27356;50.920;5.350;2023-05-10T00:59:46;14.10;99.90
41668;DHT22;27356;50.920;5.350;2023-05-10T01:02:12;14.20;99.90
41668;DHT22;27356;50.920;5.350;2023-05-10T01:04:38;14.20;99.90
41668;DHT22;27356;50.920;5.350;2023-05-10T01:07:05;14.20;99.90
41668;DHT22;27356;50.920;5.350;2023-05-10T01:09:31;14.20;99.90
41668;DHT22;27356;50.920;5.350;2023-05-10T01:11:57;14.20;99.90
41668;DHT22;27356;50.920;5.350;2023-05-10T01:14:23;14.20;99.90
41668;DHT22;27356;50.920;5.350;2023-05-10T01:16:50;14.20;99.90
41668;DHT22;27356;50.920;5.350;2023-05-10T01:19:22;14.20;99.90
41668;DHT22;27356;50.920;5.350;2023-05-10T01:24:40;14.00;99.90
41668;DHT22;27356;50.920;5.350;2023-05-10T01:32:41;14.00;99.90
41668;DHT22;27356;50.920;5.350;2023-05-10T01:38:22;13.90;99.90
41668;DHT22;27356;50.920;5.350;2023-05-10T01:41:24;14.00;99.90
41668;DHT22;27356;50.920;5.350;2023-05-10T01:46:54;14.10;99.90
41668;DHT22;27356;50.920;5.350;2023-05-10T01:49:24;14.00;99.90
41668;DHT22;27356;50.920;5.350;2023-05-10T01:51:54;14.00;99.90
41668;DHT22;27356;50.920;5.350;2023-05-10T01:54:23;14.00;99.90
41668;DHT22;27356;50.920;5.350;2023-05-10T01:56:55;14.00;99.90
41668;DHT22;27356;50.920;5.350;2023-05-10T01:59:26;14.10;99.90
41668;DHT22;27356;50.920;5.350;2023-05-10T02:01:54;14.10;99.90
41668;DHT22;27356;50.920;5.350;2023-05-10T02:04:22;14.10;99.90
41668;DHT22;27356;50.920;5.350;2023-05-10T02:06:50;14.20;99.90
41668;DHT22;27356;50.920;5.350;2023-05-10T02:09:17;14.30;99.90
41668;DHT22;27356;50.920;5.350;2023-05-10T02:11:44;14.20;99.90
41668;DHT22;27356;50.920;5.350;2023-05-10T02:14:11;14.10;99.90
41668;DHT22;27356;50.920;5.350;2023-05-10T02:16:38;14.10;99.90
41668;DHT22;27356;50.920;5.350;2023-05-10T02:19:05;14.20;99.90
41668;DHT22;27356;50.920;5.350;2023-05-10T02:21:31;14.20;99.90
41668;DHT22;27356;50.920;5.350;2023-05-10T02:24:00;14.40;99.90
41668;DHT22;27356;50.920;5.350;2023-05-10T02:26:27;14.30;99.90
41668;DHT22;27356;50.920;5.350;2023-05-10T02:28:54;14.40;99.90
41668;DHT22;27356;50.920;5.350;2023-05-10T02:31:22;14.30;99.90
41668;DHT22;27356;50.920;5.350;2023-05-10T02:33:48;14.30;99.90
41668;DHT22;27356;50.920;5.350;2023-05-10T02:36:15;14.30;99.90
41668;DHT22;27356;50.920;5.350;2023-05-10T02:38:41;14.30;99.90
41668;DHT22;27356;50.920;5.350;2023-05-10T02:41:10;14.30;99.90
41668;DHT22;27356;50.920;5.350;2023-05-10T02:43:37;14.30;99.90
41668;DHT22;27356;50.920;5.350;2023-05-10T02:46:04;14.30;99.90
41668;DHT22;27356;50.920;5.350;2023-05-10T02:48:30;14.30;99.90
41668;DHT22;27356;50.920;5.350;2023-05-10T02:51:00;14.30;99.90
41668;DHT22;27356;50.920;5.350;2023-05-10T02:53:36;14.20;99.90
41668;DHT22;27356;50.920;5.350;2023-05-10T02:56:05;14.20;99.90
41668;DHT22;27356;50.920;5.350;2023-05-10T02:58:34;14.20;99.90
41668;DHT22;27356;50.920;5.350;2023-05-10T03:01:00;14.20;99.90
41668;DHT22;27356;50.920;5.350;2023-05-10T03:03:26;14.30;99.90
41668;DHT22;27356;50.920;5.350;2023-05-10T03:05:52;14.20;99.90
41668;DHT22;27356;50.920;5.350;2023-05-10T03:08:21;14.10;99.90
41668;DHT22;27356;50.920;5.350;2023-05-10T03:11:22;14.20;99.90
41668;DHT22;27356;50.920;5.350;2023-05-10T03:14:16;14.20;99.90
41668;DHT22;27356;50.920;5.350;2023-05-10T03:16:47;14.20;99.90
41668;DHT22;27356;50.920;5.350;2023-05-10T03:19:22;14.20;99.90
41668;DHT22;27356;50.920;5.350;2023-05-10T03:21:52;14.20;99.90
41668;DHT22;27356;50.920;5.350;2023-05-10T03:24:21;14.20;99.90
41668;DHT22;27356;50.920;5.350;2023-05-10T03:26:49;14.20;99.90
41668;DHT22;27356;50.920;5.350;2023-05-10T03:29:16;14.10;99.90
41668;DHT22;27356;50.920;5.350;2023-05-10T03:31:42;14.00;99.90
41668;DHT22;27356;50.920;5.350;2023-05-10T03:34:08;14.00;99.90
41668;DHT22;27356;50.920;5.350;2023-05-10T03:36:34;14.00;99.90
41668;DHT22;27356;50.920;5.350;2023-05-10T03:39:00;14.10;99.90
41668;DHT22;27356;50.920;5.350;2023-05-10T03:41:26;14.20;99.90
41668;DHT22;27356;50.920;5.350;2023-05-10T03:43:51;14.10;99.90
41668;DHT22;27356;50.920;5.350;2023-05-10T03:46:17;14.20;99.90
41668;DHT22;27356;50.920;5.350;2023-05-10T03:48:43;14.20;99.90
41668;DHT22;27356;50.920;5.350;2023-05-10T03:51:09;14.10;99.90
41668;DHT22;27356;50.920;5.350;2023-05-10T03:53:34;14.10;99.90
41668;DHT22;27356;50.920;5.350;2023-05-10T03:56:00;14.10;99.90
41668;DHT22;27356;50.920;5.350;2023-05-10T03:58:26;14.00;99.90
41668;DHT22;27356;50.920;5.350;2023-05-10T04:00:52;13.90;99.90
41668;DHT22;27356;50.920;5.350;2023-05-10T04:03:18;14.00;99.90
41668;DHT22;27356;50.920;5.350;2023-05-10T04:05:43;14.00;99.90
41668;DHT22;27356;50.920;5.350;2023-05-10T04:08:09;14.00;99.90
41668;DHT22;27356;50.920;5.350;2023-05-10T04:10:35;14.00;99.90
41668;DHT22;27356;50.920;5.350;2023-05-10T04:13:00;13.80;99.90
41668;DHT22;27356;50.920;5.350;2023-05-10T04:15:26;13.70;99.90
41668;DHT22;27356;50.920;5.350;2023-05-10T04:17:52;13.70;99.90
41668;DHT22;27356;50.920;5.350;2023-05-10T04:20:19;13.70;99.90
41668;DHT22;27356;50.920;5.350;2023-05-10T04:22:44;13.60;99.90
41668;DHT22;27356;50.920;5.350;2023-05-10T04:25:10;13.50;99.90
41668;DHT22;27356;50.920;5.350;2023-05-10T04:27:35;13.50;99.90
41668;DHT22;27356;50.920;5.350;2023-05-10T04:30:02;13.60;99.90
41668;DHT22;27356;50.920;5.350;2023-05-10T04:32:27;13.60;99.90
41668;DHT22;27356;50.920;5.350;2023-05-10T04:34:53;13.70;99.90
41668;DHT22;27356;50.920;5.350;2023-05-10T04:37:19;13.60;99.90
41668;DHT22;27356;50.920;5.350;2023-05-10T04:39:46;13.70;99.90
41668;DHT22;27356;50.920;5.350;2023-05-10T04:42:12;13.70;99.90
41668;DHT22;27356;50.920;5.350;2023-05-10T04:44:40;13.70;99.90
41668;DHT22;27356;50.920;5.350;2023-05-10T04:47:06;13.60;99.90
41668;DHT22;27356;50.920;5.350;2023-05-10T04:49:31;13.50;99.90
41668;DHT22;27356;50.920;5.350;2023-05-10T04:51:57;13.50;99.90
41668;DHT22;27356;50.920;5.350;2023-05-10T04:54:23;13.60;99.90
41668;DHT22;27356;50.920;5.350;2023-05-10T04:56:49;13.60;99.90
41668;DHT22;27356;50.920;5.350;2023-05-10T04:59:14;13.60;99.90
41668;DHT22;27356;50.920;5.350;2023-05-10T05:01:40;13.60;99.90
41668;DHT22;27356;50.920;5.350;2023-05-10T05:04:06;13.60;99.90
41668;DHT22;27356;50.920;5.350;2023-05-10T05:06:32;13.50;99.90
41668;DHT22;27356;50.920;5.350;2023-05-10T05:08:58;13.50;99.90
41668;DHT22;27356;50.920;5.350;2023-05-10T05:11:23;13.50;99.90
41668;DHT22;27356;50.920;5.350;2023-05-10T05:13:50;13.40;99.90
41668;DHT22;27356;50.920;5.350;2023-05-10T05:16:16;13.50;99.90
41668;DHT22;27356;50.920;5.350;2023-05-10T05:18:42;13.50;99.90
41668;DHT22;27356;50.920;5.350;2023-05-10T05:21:17;13.60;99.90
41668;DHT22;27356;50.920;5.350;2023-05-10T05:23:43;13.60;99.90
41668;DHT22;27356;50.920;5.350;2023-05-10T05:26:09;13.60;99.90
41668;DHT22;27356;50.920;5.350;2023-05-10T05:28:35;13.50;99.90
41668;DHT22;27356;50.920;5.350;2023-05-10T05:31:06;13.50;99.90
41668;DHT22;27356;50.920;5.350;2023-05-10T05:33:33;13.60;99.90
41668;DHT22;27356;50.920;5.350;2023-05-10T05:36:03;13.50;99.90
41668;DHT22;27356;50.920;5.350;2023-05-10T05:38:29;13.60;99.90
41668;DHT22;27356;50.920;5.350;2023-05-10T05:40:55;13.50;99.90
41668;DHT22;27356;50.920;5.350;2023-05-10T05:43:21;13.60;99.90
41668;DHT22;27356;50.920;5.350;2023-05-10T05:45:46;13.70;99.90
41668;DHT22;27356;50.920;5.350;2023-05-10T05:48:12;13.70;99.90
41668;DHT22;27356;50.920;5.350;2023-05-10T05:50:38;13.80;99.90
41668;DHT22;27356;50.920;5.350;2023-05-10T05:53:04;13.70;99.90
41668;DHT22;27356;50.920;5.350;2023-05-10T05:55:29;13.70;99.90
41668;DHT22;27356;50.920;5.350;2023-05-10T05:57:57;13.80;99.90
41668;DHT22;27356;50.920;5.350;2023-05-10T06:00:23;13.90;99.90
41668;DHT22;27356;50.920;5.350;2023-05-10T06:02:48;14.00;99.90
41668;DHT22;27356;50.920;5.350;2023-05-10T06:05:14;14.00;99.90
41668;DHT22;27356;50.920;5.350;2023-05-10T06:07:41;13.90;99.90
41668;DHT22;27356;50.920;5.350;2023-05-10T06:10:10;14.00;99.90
41668;DHT22;27356;50.920;5.350;2023-05-10T06:12:36;14.00;99.90
41668;DHT22;27356;50.920;5.350;2023-05-10T06:15:02;14.00;99.90
41668;DHT22;27356;50.920;5.350;2023-05-10T06:17:28;13.90;99.90
41668;DHT22;27356;50.920;5.350;2023-05-10T06:19:54;13.90;99.90
41668;DHT22;27356;50.920;5.350;2023-05-10T06:22:20;13.90;99.90
41668;DHT22;27356;50.920;5.350;2023-05-10T06:24:47;13.90;99.90
41668;DHT22;27356;50.920;5.350;2023-05-10T06:27:12;13.90;99.90
41668;DHT22;27356;50.920;5.350;2023-05-10T06:29:38;13.80;99.90
41668;DHT22;27356;50.920;5.350;2023-05-10T06:32:04;13.90;99.90
41668;DHT22;27356;50.920;5.350;2023-05-10T06:34:30;14.10;99.90
41668;DHT22;27356;50.920;5.350;2023-05-10T06:36:57;14.10;99.90
41668;DHT22;27356;50.920;5.350;2023-05-10T06:39:22;14.10;99.90
41668;DHT22;27356;50.920;5.350;2023-05-10T06:41:48;14.00;99.90
41668;DHT22;27356;50.920;5.350;2023-05-10T06:44:14;14.00;99.90
41668;DHT22;27356;50.920;5.350;2023-05-10T06:46:40;14.10;99.90
41668;DHT22;27356;50.920;5.350;2023-05-10T06:49:06;14.20;99.90
41668;DHT22;27356;50.920;5.350;2023-05-10T06:51:32;14.20;99.90
41668;DHT22;27356;50.920;5.350;2023-05-10T06:53:58;14.20;99.90
41668;DHT22;27356;50.920;5.350;2023-05-10T06:56:24;14.30;99.90
41668;DHT22;27356;50.920;5.350;2023-05-10T06:58:49;14.40;99.90
41668;DHT22;27356;50.920;5.350;2023-05-10T07:01:15;14.40;99.90
41668;DHT22;27356;50.920;5.350;2023-05-10T07:03:41;14.30;99.90
41668;DHT22;27356;50.920;5.350;2023-05-10T07:06:06;14.30;99.90
41668;DHT22;27356;50.920;5.350;2023-05-10T07:08:33;14.20;99.90
41668;DHT22;27356;50.920;5.350;2023-05-10T07:11:03;14.30;99.90
41668;DHT22;27356;50.920;5.350;2023-05-10T07:13:30;14.40;99.90
41668;DHT22;27356;50.920;5.350;2023-05-10T07:15:57;14.50;99.90
41668;DHT22;27356;50.920;5.350;2023-05-10T07:18:24;14.60;99.90
41668;DHT22;27356;50.920;5.350;2023-05-10T07:20:50;14.60;99.90
41668;DHT22;27356;50.920;5.350;2023-05-10T07:23:15;14.70;99.90
41668;DHT22;27356;50.920;5.350;2023-05-10T07:25:48;14.70;99.90
41668;DHT22;27356;50.920;5.350;2023-05-10T07:28:15;14.60;99.90
41668;DHT22;27356;50.920;5.350;2023-05-10T07:30:41;14.60;99.90
41668;DHT22;27356;50.920;5.350;2023-05-10T07:33:08;14.50;99.90
41668;DHT22;27356;50.920;5.350;2023-05-10T07:35:35;14.60;99.90
41668;DHT22;27356;50.920;5.350;2023-05-10T07:38:01;14.60;99.90
41668;DHT22;27356;50.920;5.350;2023-05-10T07:40:27;14.70;99.90
41668;DHT22;27356;50.920;5.350;2023-05-10T07:42:53;14.90;99.90
41668;DHT22;27356;50.920;5.350;2023-05-10T07:45:19;15.00;99.90
41668;DHT22;27356;50.920;5.350;2023-05-10T07:47:45;15.00;99.90
41668;DHT22;27356;50.920;5.350;2023-05-10T07:50:10;15.10;99.90
41668;DHT22;27356;50.920;5.350;2023-05-10T07:52:36;15.20;99.90
41668;DHT22;27356;50.920;5.350;2023-05-10T07:55:02;15.20;99.90
41668;DHT22;27356;50.920;5.350;2023-05-10T07:57:28;15.30;99.90
41668;DHT22;27356;50.920;5.350;2023-05-10T07:59:53;15.30;99.90
41668;DHT22;27356;50.920;5.350;2023-05-10T08:02:19;15.40;99.90
41668;DHT22;27356;50.920;5.350;2023-05-10T08:04:45;15.40;99.90
41668;DHT22;27356;50.920;5.350;2023-05-10T08:07:11;15.40;99.90
41668;DHT22;27356;50.920;5.350;2023-05-10T08:09:36;15.10;99.90
41668;DHT22;27356;50.920;5.350;2023-05-10T08:12:02;15.10;99.90
41668;DHT22;27356;50.920;5.350;2023-05-10T08:14:29;15.00;99.90
41668;DHT22;27356;50.920;5.350;2023-05-10T08:16:55;14.90;99.90
41668;DHT22;27356;50.920;5.350;2023-05-10T08:19:21;14.80;99.90
41668;DHT22;27356;50.920;5.350;2023-05-10T08:21:48;14.80;99.90
41668;DHT22;27356;50.920;5.350;2023-05-10T08:24:14;14.80;99.90
41668;DHT22;27356;50.920;5.350;2023-05-10T08:26:40;14.80;99.90
41668;DHT22;27356;50.920;5.350;2023-05-10T08:29:06;14.90;99.90
41668;DHT22;27356;50.920;5.350;2023-05-10T08:31:32;14.90;99.90
41668;DHT22;27356;50.920;5.350;2023-05-10T08:33:57;15.00;99.90
41668;DHT22;27356;50.920;5.350;2023-05-10T08:36:23;14.90;99.90
41668;DHT22;27356;50.920;5.350;2023-05-10T08:38:53;14.90;99.90
41668;DHT22;27356;50.920;5.350;2023-05-10T08:41:23;14.90;99.90
41668;DHT22;27356;50.920;5.350;2023-05-10T08:43:52;14.90;99.90
41668;DHT22;27356;50.920;5.350;2023-05-10T08:46:19;14.60;99.90
41668;DHT22;27356;50.920;5.350;2023-05-10T08:48:46;14.50;99.90
41668;DHT22;27356;50.920;5.350;2023-05-10T08:51:18;14.40;99.90
41668;DHT22;27356;50.920;5.350;2023-05-10T08:53:44;14.40;99.90
41668;DHT22;27356;50.920;5.350;2023-05-10T08:56:10;14.50;99.90
41668;DHT22;27356;50.920;5.350;2023-05-10T08:58:37;14.50;99.90
41668;DHT22;27356;50.920;5.350;2023-05-10T09:01:03;14.50;99.90
41668;DHT22;27356;50.920;5.350;2023-05-10T09:03:31;14.50;99.90
41668;DHT22;27356;50.920;5.350;2023-05-10T09:05:57;14.60;99.90
41668;DHT22;27356;50.920;5.350;2023-05-10T09:08:24;14.70;99.90
41668;DHT22;27356;50.920;5.350;2023-05-10T09:10:54;14.70;99.90
41668;DHT22;27356;50.920;5.350;2023-05-10T09:13:21;14.60;99.90
41668;DHT22;27356;50.920;5.350;2023-05-10T09:15:47;14.60;99.90
41668;DHT22;27356;50.920;5.350;2023-05-10T09:18:13;14.70;99.90
41668;DHT22;27356;50.920;5.350;2023-05-10T09:20:40;14.80;99.90
41668;DHT22;27356;50.920;5.350;2023-05-10T09:23:06;14.90;99.90
41668;DHT22;27356;50.920;5.350;2023-05-10T09:25:32;14.90;99.90
41668;DHT22;27356;50.920;5.350;2023-05-10T09:28:06;15.10;99.90
41668;DHT22;27356;50.920;5.350;2023-05-10T09:30:32;15.20;99.90
41668;DHT22;27356;50.920;5.350;2023-05-10T09:32:59;15.30;99.90
41668;DHT22;27356;50.920;5.350;2023-05-10T09:35:27;15.30;99.90
41668;DHT22;27356;50.920;5.350;2023-05-10T09:37:56;15.50;99.90
41668;DHT22;27356;50.920;5.350;2023-05-10T09:40:27;15.70;99.90
41668;DHT22;27356;50.920;5.350;2023-05-10T09:42:54;15.80;99.90
41668;DHT22;27356;50.920;5.350;2023-05-10T09:45:21;16.00;99.90
41668;DHT22;27356;50.920;5.350;2023-05-10T09:47:47;16.40;99.90
41668;DHT22;27356;50.920;5.350;2023-05-10T09:50:13;16.50;99.90
41668;DHT22;27356;50.920;5.350;2023-05-10T09:52:52;16.80;99.90
41668;DHT22;27356;50.920;5.350;2023-05-10T09:55:20;16.90;99.90
41668;DHT22;27356;50.920;5.350;2023-05-10T09:57:48;17.20;99.90
41668;DHT22;27356;50.920;5.350;2023-05-10T10:00:20;17.40;99.90
41668;DHT22;27356;50.920;5.350;2023-05-10T10:03:07;17.70;99.90
41668;DHT22;27356;50.920;5.350;2023-05-10T10:05:40;17.80;99.90
41668;DHT22;27356;50.920;5.350;2023-05-10T10:08:07;17.70;99.90
41668;DHT22;27356;50.920;5.350;2023-05-10T10:10:33;17.70;99.90
41668;DHT22;27356;50.920;5.350;2023-05-10T10:13:01;17.60;99.90
41668;DHT22;27356;50.920;5.350;2023-05-10T10:15:27;17.70;99.90
41668;DHT22;27356;50.920;5.350;2023-05-10T10:17:53;17.80;99.90
41668;DHT22;27356;50.920;5.350;2023-05-10T10:20:21;17.50;99.90
41668;DHT22;27356;50.920;5.350;2023-05-10T10:22:47;17.70;99.90
41668;DHT22;27356;50.920;5.350;2023-05-10T10:25:16;17.60;99.90
41668;DHT22;27356;50.920;5.350;2023-05-10T10:35:48;17.40;99.90
41668;DHT22;27356;50.920;5.350;2023-05-10T10:38:15;17.40;99.90
41668;DHT22;27356;50.920;5.350;2023-05-10T10:40:41;17.20;99.90
41668;DHT22;27356;50.920;5.350;2023-05-10T10:43:27;17.20;99.90
41668;DHT22;27356;50.920;5.350;2023-05-10T10:48:37;17.10;99.90
41668;DHT22;27356;50.920;5.350;2023-05-10T10:51:02;17.10;99.90
41668;DHT22;27356;50.920;5.350;2023-05-10T10:53:28;17.10;99.90
41668;DHT22;27356;50.920;5.350;2023-05-10T10:56:07;17.30;99.90
41668;DHT22;27356;50.920;5.350;2023-05-10T10:58:35;17.50;99.90
41668;DHT22;27356;50.920;5.350;2023-05-10T11:01:15;17.70;99.90
41668;DHT22;27356;50.920;5.350;2023-05-10T11:04:39;17.60;99.90
41668;DHT22;27356;50.920;5.350;2023-05-10T11:06:40;17.70;99.90
41668;DHT22;27356;50.920;5.350;2023-05-10T11:09:09;17.90;99.90
41668;DHT22;27356;50.920;5.350;2023-05-10T11:11:36;17.90;99.90
41668;DHT22;27356;50.920;5.350;2023-05-10T11:14:13;17.90;99.90
41668;DHT22;27356;50.920;5.350;2023-05-10T11:16:43;18.10;99.90
41668;DHT22;27356;50.920;5.350;2023-05-10T11:19:11;17.90;99.90
41668;DHT22;27356;50.920;5.350;2023-05-10T11:24:31;18.30;99.90
41668;DHT22;27356;50.920;5.350;2023-05-10T11:26:57;18.20;99.90
41668;DHT22;27356;50.920;5.350;2023-05-10T11:29:22;18.10;99.90
41668;DHT22;27356;50.920;5.350;2023-05-10T11:31:49;18.10;99.90
41668;DHT22;27356;50.920;5.350;2023-05-10T11:34:31;18.40;99.90
41668;DHT22;27356;50.920;5.350;2023-05-10T11:36:59;18.40;99.90
41668;DHT22;27356;50.920;5.350;2023-05-10T11:39:30;18.40;99.90
41668;DHT22;27356;50.920;5.350;2023-05-10T11:41:57;18.40;99.90
41668;DHT22;27356;50.920;5.350;2023-05-10T11:44:23;18.70;99.90
41668;DHT22;27356;50.920;5.350;2023-05-10T11:46:49;18.70;99.90
41668;DHT22;27356;50.920;5.350;2023-05-10T11:49:15;18.80;99.90
41668;DHT22;27356;50.920;5.350;2023-05-10T11:51:40;18.80;99.90
41668;DHT22;27356;50.920;5.350;2023-05-10T11:54:10;19.00;99.90
41668;DHT22;27356;50.920;5.350;2023-05-10T11:56:40;19.10;99.90
41668;DHT22;27356;50.920;5.350;2023-05-10T11:59:06;19.20;99.90
41668;DHT22;27356;50.920;5.350;2023-05-10T12:01:33;19.10;99.90
41668;DHT22;27356;50.920;5.350;2023-05-10T12:03:59;19.10;99.90
41668;DHT22;27356;50.920;5.350;2023-05-10T12:06:36;19.20;99.90
41668;DHT22;27356;50.920;5.350;2023-05-10T12:09:06;19.40;99.90
41668;DHT22;27356;50.920;5.350;2023-05-10T12:11:37;19.60;99.90
41668;DHT22;27356;50.920;5.350;2023-05-10T12:14:04;19.50;99.90
41668;DHT22;27356;50.920;5.350;2023-05-10T12:16:30;19.60;99.90
41668;DHT22;27356;50.920;5.350;2023-05-10T12:18:57;19.40;99.90
41668;DHT22;27356;50.920;5.350;2023-05-10T12:21:24;19.50;99.90
41668;DHT22;27356;50.920;5.350;2023-05-10T12:23:51;19.60;99.90
41668;DHT22;27356;50.920;5.350;2023-05-10T12:26:18;19.50;99.90
41668;DHT22;27356;50.920;5.350;2023-05-10T12:28:44;19.60;99.90
41668;DHT22;27356;50.920;5.350;2023-05-10T12:31:09;19.60;99.90
41668;DHT22;27356;50.920;5.350;2023-05-10T12:33:41;19.50;99.90
41668;DHT22;27356;50.920;5.350;2023-05-10T12:36:09;19.40;99.90
41668;DHT22;27356;50.920;5.350;2023-05-10T12:38:40;19.30;99.90
41668;DHT22;27356;50.920;5.350;2023-05-10T12:41:18;19.20;99.90
41668;DHT22;27356;50.920;5.350;2023-05-10T12:43:44;19.20;99.90
41668;DHT22;27356;50.920;5.350;2023-05-10T12:46:16;19.20;99.90
41668;DHT22;27356;50.920;5.350;2023-05-10T12:48:43;19.20;99.90
41668;DHT22;27356;50.920;5.350;2023-05-10T12:51:09;19.40;99.90
41668;DHT22;27356;50.920;5.350;2023-05-10T12:53:37;19.40;99.90
41668;DHT22;27356;50.920;5.350;2023-05-10T12:56:04;19.30;99.90
41668;DHT22;27356;50.920;5.350;2023-05-10T12:58:30;19.50;99.90
41668;DHT22;27356;50.920;5.350;2023-05-10T13:00:55;19.70;99.90
41668;DHT22;27356;50.920;5.350;2023-05-10T13:03:22;19.90;99.90
41668;DHT22;27356;50.920;5.350;2023-05-10T13:05:48;19.90;99.90
41668;DHT22;27356;50.920;5.350;2023-05-10T13:08:14;20.10;99.90
41668;DHT22;27356;50.920;5.350;2023-05-10T13:10:39;20.10;99.90
41668;DHT22;27356;50.920;5.350;2023-05-10T13:13:06;20.00;99.90
41668;DHT22;27356;50.920;5.350;2023-05-10T13:15:32;20.10;99.90
41668;DHT22;27356;50.920;5.350;2023-05-10T13:17:58;20.40;99.90
41668;DHT22;27356;50.920;5.350;2023-05-10T13:20:25;20.60;99.90
41668;DHT22;27356;50.920;5.350;2023-05-10T13:22:50;20.70;99.90
41668;DHT22;27356;50.920;5.350;2023-05-10T13:25:16;20.70;99.90
41668;DHT22;27356;50.920;5.350;2023-05-10T13:27:42;20.80;99.90
41668;DHT22;27356;50.920;5.350;2023-05-10T13:30:08;20.80;99.90
41668;DHT22;27356;50.920;5.350;2023-05-10T13:32:35;20.60;99.90
41668;DHT22;27356;50.920;5.350;2023-05-10T13:35:01;20.40;99.90
41668;DHT22;27356;50.920;5.350;2023-05-10T13:37:29;20.20;99.90
41668;DHT22;27356;50.920;5.350;2023-05-10T13:39:55;20.20;99.90
41668;DHT22;27356;50.920;5.350;2023-05-10T13:42:22;20.30;99.90
41668;DHT22;27356;50.920;5.350;2023-05-10T13:44:48;20.40;99.90
41668;DHT22;27356;50.920;5.350;2023-05-10T13:47:14;20.50;99.90
41668;DHT22;27356;50.920;5.350;2023-05-10T13:49:40;20.40;99.90
41668;DHT22;27356;50.920;5.350;2023-05-10T13:52:06;20.20;99.90
41668;DHT22;27356;50.920;5.350;2023-05-10T13:54:38;20.10;99.90
41668;DHT22;27356;50.920;5.350;2023-05-10T13:57:04;19.90;99.90
41668;DHT22;27356;50.920;5.350;2023-05-10T13:59:30;20.00;99.90
41668;DHT22;27356;50.920;5.350;2023-05-10T14:01:59;19.90;99.90
41668;DHT22;27356;50.920;5.350;2023-05-10T14:04:26;20.00;99.90
41668;DHT22;27356;50.920;5.350;2023-05-10T14:06:51;19.90;99.90
41668;DHT22;27356;50.920;5.350;2023-05-10T14:09:18;19.90;99.90
41668;DHT22;27356;50.920;5.350;2023-05-10T14:11:44;19.90;99.90
41668;DHT22;27356;50.920;5.350;2023-05-10T14:14:10;20.00;99.90
41668;DHT22;27356;50.920;5.350;2023-05-10T14:16:36;19.80;99.90
41668;DHT22;27356;50.920;5.350;2023-05-10T14:19:01;19.60;99.90
41668;DHT22;27356;50.920;5.350;2023-05-10T14:21:28;19.80;99.90
41668;DHT22;27356;50.920;5.350;2023-05-10T14:23:56;19.90;99.90
41668;DHT22;27356;50.920;5.350;2023-05-10T14:26:22;19.90;99.90
41668;DHT22;27356;50.920;5.350;2023-05-10T14:28:48;20.20;99.90
41668;DHT22;27356;50.920;5.350;2023-05-10T14:31:14;20.40;99.90
41668;DHT22;27356;50.920;5.350;2023-05-10T14:33:40;20.50;99.90
41668;DHT22;27356;50.920;5.350;2023-05-10T14:36:06;20.50;99.90
41668;DHT22;27356;50.920;5.350;2023-05-10T14:38:32;20.40;99.90
41668;DHT22;27356;50.920;5.350;2023-05-10T14:40:58;20.50;99.90
41668;DHT22;27356;50.920;5.350;2023-05-10T14:43:24;20.10;99.90
41668;DHT22;27356;50.920;5.350;2023-05-10T14:45:49;20.40;99.90
41668;DHT22;27356;50.920;5.350;2023-05-10T14:48:15;20.60;99.90
41668;DHT22;27356;50.920;5.350;2023-05-10T14:50:43;20.40;99.90
41668;DHT22;27356;50.920;5.350;2023-05-10T14:53:09;20.60;99.90
41668;DHT22;27356;50.920;5.350;2023-05-10T14:55:35;20.40;99.90
41668;DHT22;27356;50.920;5.350;2023-05-10T14:58:02;20.40;99.90
41668;DHT22;27356;50.920;5.350;2023-05-10T15:00:29;20.40;99.90
41668;DHT22;27356;50.920;5.350;2023-05-10T15:02:55;20.40;99.90
41668;DHT22;27356;50.920;5.350;2023-05-10T15:05:21;20.70;99.90
41668;DHT22;27356;50.920;5.350;2023-05-10T15:07:47;20.90;99.90
41668;DHT22;27356;50.920;5.350;2023-05-10T15:10:14;20.90;99.90
41668;DHT22;27356;50.920;5.350;2023-05-10T15:12:40;21.00;99.90
41668;DHT22;27356;50.920;5.350;2023-05-10T15:15:06;21.00;99.90
41668;DHT22;27356;50.920;5.350;2023-05-10T15:17:33;21.00;99.90
41668;DHT22;27356;50.920;5.350;2023-05-10T15:19:59;21.10;99.90
41668;DHT22;27356;50.920;5.350;2023-05-10T15:22:25;21.00;99.90
41668;DHT22;27356;50.920;5.350;2023-05-10T15:24:51;20.90;99.90
41668;DHT22;27356;50.920;5.350;2023-05-10T15:27:16;20.90;99.90
41668;DHT22;27356;50.920;5.350;2023-05-10T15:29:42;20.80;99.90
41668;DHT22;27356;50.920;5.350;2023-05-10T15:32:08;21.00;99.90
41668;DHT22;27356;50.920;5.350;2023-05-10T15:34:33;21.00;99.90
41668;DHT22;27356;50.920;5.350;2023-05-10T15:36:59;21.30;99.90
41668;DHT22;27356;50.920;5.350;2023-05-10T15:39:25;21.10;99.90
41668;DHT22;27356;50.920;5.350;2023-05-10T15:41:50;21.10;99.90
41668;DHT22;27356;50.920;5.350;2023-05-10T15:44:16;21.30;99.90
41668;DHT22;27356;50.920;5.350;2023-05-10T15:46:43;21.00;99.90
41668;DHT22;27356;50.920;5.350;2023-05-10T15:49:09;21.20;99.90
41668;DHT22;27356;50.920;5.350;2023-05-10T15:51:35;21.00;99.90
41668;DHT22;27356;50.920;5.350;2023-05-10T15:54:00;20.90;99.90
41668;DHT22;27356;50.920;5.350;2023-05-10T15:56:31;20.80;99.90
41668;DHT22;27356;50.920;5.350;2023-05-10T15:58:58;20.50;99.90